Time;durP1;ratioP1;P1;durP2;ratioP2;P2;SDS_P1;SDS_P2;PMS_P1;PMS_P2;Temp;Humidity;BMP_temperature;BMP_pressure;BME280_temperature;BME280_humidity;BME280_pressure;Samples;Min_cycle;Max_cycle;Signal;HPM_P1;HPM_P2
2024/04/09 00:00:28;;;;;;;4.82;1.35;;;;;;;11.53;47.20;94269.53;5539761;26;19985;-72
2024/04/09 00:02:54;;;;;;;1.75;1.00;;;;;;;11.37;47.48;94267.25;5539730;26;20044;-72
2024/04/09 00:05:19;;;;;;;2.65;0.88;;;;;;;11.36;46.96;94260.38;5539787;26;19993;-72
2024/04/09 00:07:46;;;;;;;2.03;0.73;;;;;;;11.40;46.66;94258.66;5539570;25;20042;-72
2024/04/09 00:10:13;;;;;;;1.42;0.77;;;;;;;11.35;46.90;94260.66;5539717;26;20000;-71
2024/04/09 00:12:38;;;;;;;1.92;0.90;;;;;;;11.32;47.04;94258.63;5539769;25;19996;-71
2024/04/09 00:15:08;;;;;;;4.85;1.10;;;;;;;11.29;47.45;94260.00;5539463;26;19989;-71
2024/04/09 00:17:44;;;;;;;3.65;0.88;;;;;;;11.22;47.83;94249.00;5540005;26;19996;-72
2024/04/09 00:20:11;;;;;;;4.03;1.15;;;;;;;11.03;48.52;94260.69;5539549;26;19997;-72
2024/04/09 00:22:37;;;;;;;1.45;0.80;;;;;;;10.97;48.67;94251.22;5539657;26;19992;-71
2024/04/09 00:25:03;;;;;;;8.95;1.75;;;;;;;11.02;48.73;94256.44;5539479;25;20005;-71
2024/04/09 00:27:28;;;;;;;3.28;1.30;;;;;;;11.06;49.04;94253.16;5539641;26;19985;-71
2024/04/09 00:29:54;;;;;;;2.53;1.23;;;;;;;11.00;49.10;94253.28;5539130;26;19985;-71
2024/04/09 00:32:20;;;;;;;2.15;1.00;;;;;;;11.00;49.32;94255.94;5539267;25;20450;-72
2024/04/09 00:34:45;;;;;;;1.70;0.88;;;;;;;10.98;49.05;94241.34;5539108;25;19997;-71
2024/04/09 00:37:14;;;;;;;1.90;0.90;;;;;;;10.97;48.89;94248.56;5539348;25;20045;-72
2024/04/09 00:39:41;;;;;;;13.98;1.30;;;;;;;10.97;49.57;94243.22;5538851;26;19996;-73
2024/04/09 00:42:09;;;;;;;1.60;0.80;;;;;;;10.89;49.79;94248.50;5539065;25;20030;-72
2024/04/09 00:44:36;;;;;;;3.38;1.08;;;;;;;10.79;49.90;94246.91;5539173;26;20041;-72
2024/04/09 00:47:04;;;;;;;4.43;1.10;;;;;;;10.79;49.92;94236.22;5538988;26;20005;-72
2024/04/09 00:49:30;;;;;;;3.03;1.08;;;;;;;10.78;49.90;94237.31;5539204;25;19996;-73
2024/04/09 00:51:57;;;;;;;5.75;1.20;;;;;;;10.78;50.10;94243.41;5539180;25;19985;-73
2024/04/09 00:54:23;;;;;;;2.45;0.88;;;;;;;10.80;50.47;94240.44;5539187;26;19988;-73
2024/04/09 00:56:49;;;;;;;1.90;0.90;;;;;;;10.76;50.54;94240.25;5538710;26;19986;-73
2024/04/09 00:59:15;;;;;;;1.55;0.85;;;;;;;10.76;50.52;94239.50;5538591;26;19992;-73
2024/04/09 01:01:43;;;;;;;3.38;1.00;;;;;;;10.68;50.74;94243.66;5539134;25;20109;-73
2024/04/09 01:04:08;;;;;;;2.63;1.30;;;;;;;10.69;50.81;94244.47;5539046;26;19989;-73
2024/04/09 01:06:35;;;;;;;3.10;1.27;;;;;;;10.69;50.39;94242.59;5537707;25;19989;-72
2024/04/09 01:09:00;;;;;;;2.90;1.35;;;;;;;10.68;50.36;94241.00;5538729;25;19989;-72
2024/04/09 01:11:25;;;;;;;9.95;1.65;;;;;;;10.69;50.18;94244.47;5538821;25;19998;-73
2024/04/09 01:13:53;;;;;;;6.82;2.00;;;;;;;10.68;50.33;94249.00;5538663;26;19985;-72
2024/04/09 01:16:18;;;;;;;4.35;1.92;;;;;;;10.68;50.36;94242.88;5538624;26;20017;-72
2024/04/09 01:18:44;;;;;;;3.10;1.63;;;;;;;10.69;50.01;94241.81;5538931;25;20038;-73
2024/04/09 01:21:10;;;;;;;2.65;1.17;;;;;;;10.70;49.27;94241.47;5538536;25;19985;-72
2024/04/09 01:23:36;;;;;;;2.05;0.75;;;;;;;10.71;48.59;94237.75;5539033;25;19992;-72
2024/04/09 01:26:02;;;;;;;2.67;1.13;;;;;;;10.73;48.36;94245.44;5538316;25;19997;-73
2024/04/09 01:28:30;;;;;;;2.58;1.00;;;;;;;10.76;48.47;94240.25;5539005;25;19981;-73
2024/04/09 01:30:56;;;;;;;2.80;1.17;;;;;;;10.73;49.04;94243.56;5538288;26;20038;-73
2024/04/09 01:33:21;;;;;;;6.65;1.00;;;;;;;10.67;49.67;94242.09;5538766;25;19982;-74
2024/04/09 01:35:50;;;;;;;2.25;1.10;;;;;;;10.67;50.01;94241.31;5538113;26;19989;-74
2024/04/09 01:38:15;;;;;;;7.80;1.50;;;;;;;10.62;50.54;94231.56;5538279;25;19996;-73
2024/04/09 01:40:41;;;;;;;4.05;0.90;;;;;;;10.57;50.87;94232.47;5538233;25;19986;-73
2024/04/09 01:43:06;;;;;;;3.92;1.20;;;;;;;10.56;51.24;94233.56;5538257;26;19998;-74
2024/04/09 01:45:32;;;;;;;2.17;1.05;;;;;;;10.54;51.46;94232.28;5538155;26;20010;-73
2024/04/09 01:47:58;;;;;;;2.38;1.30;;;;;;;10.53;51.51;94226.16;5538379;25;20150;-73
2024/04/09 01:50:23;;;;;;;5.78;1.48;;;;;;;10.50;51.98;94221.47;5538027;26;19997;-73
2024/04/09 01:52:48;;;;;;;6.03;1.30;;;;;;;10.47;52.04;94229.28;5538325;26;20245;-73
2024/04/09 01:55:14;;;;;;;3.95;1.23;;;;;;;10.41;51.84;94223.25;5537936;26;19997;-73
2024/04/09 01:57:40;;;;;;;2.22;1.17;;;;;;;10.38;51.83;94223.84;5538151;26;20205;-73
2024/04/09 02:00:19;;;;;;;6.20;1.27;;;;;;;10.34;51.79;94229.03;5537466;26;20017;-74
2024/04/09 02:02:47;;;;;;;2.42;0.90;;;;;;;10.29;51.90;94221.09;5538016;26;20128;-73
2024/04/09 02:05:13;;;;;;;4.47;0.68;;;;;;;10.30;51.54;94227.25;5538001;26;19985;-73
2024/04/09 02:07:39;;;;;;;3.60;1.00;;;;;;;10.24;51.57;94223.91;5537540;25;19990;-74
2024/04/09 02:10:05;;;;;;;6.72;1.15;;;;;;;10.21;51.46;94214.63;5537489;26;20205;-74
2024/04/09 02:12:30;;;;;;;3.50;0.98;;;;;;;10.21;51.98;94219.94;5537389;25;19985;-74
2024/04/09 02:14:56;;;;;;;6.13;1.20;;;;;;;10.17;52.12;94213.63;5537825;25;19982;-74
2024/04/09 02:17:21;;;;;;;4.30;1.23;;;;;;;10.10;52.47;94218.63;5537737;26;20058;-74
2024/04/09 02:19:47;;;;;;;3.60;1.20;;;;;;;10.02;52.92;94222.78;5541197;26;19986;-73
2024/04/09 02:22:12;;;;;;;5.07;1.05;;;;;;;9.97;53.54;94222.09;5541304;26;20089;-74
2024/04/09 02:24:38;;;;;;;4.22;1.00;;;;;;;9.89;53.33;94228.13;5541139;25;20203;-73
2024/04/09 02:27:03;;;;;;;2.40;1.00;;;;;;;9.83;53.98;94222.91;5541110;26;20001;-73
2024/04/09 02:29:30;;;;;;;2.28;1.00;;;;;;;9.83;53.36;94225.59;5541688;25;20072;-73
2024/04/09 02:32:01;;;;;;;3.05;1.40;;;;;;;9.88;52.26;94222.00;5540872;25;19991;-73
2024/04/09 02:34:27;;;;;;;5.10;1.90;;;;;;;9.84;52.72;94221.81;5539303;26;20068;-73
2024/04/09 02:36:52;;;;;;;3.15;1.67;;;;;;;9.78;53.48;94223.00;5539214;25;19992;-73
2024/04/09 02:39:18;;;;;;;4.68;2.08;;;;;;;9.75;53.90;94220.97;5538857;26;19989;-74
2024/04/09 02:41:43;;;;;;;5.63;2.55;;;;;;;9.74;54.02;94219.38;5540901;25;20114;-73
2024/04/09 02:44:09;;;;;;;4.82;1.50;;;;;;;9.70;53.88;94214.94;5540842;26;19985;-74
2024/04/09 02:46:35;;;;;;;4.22;1.48;;;;;;;9.66;53.76;94220.06;5541073;26;20042;-74
2024/04/09 02:49:01;;;;;;;6.25;1.40;;;;;;;9.63;53.59;94210.03;5541049;26;19993;-74
2024/04/09 02:51:29;;;;;;;3.00;1.05;;;;;;;9.68;53.65;94212.59;5541062;25;20041;-74
2024/04/09 02:53:54;;;;;;;2.42;1.15;;;;;;;9.73;53.82;94209.81;5509184;26;20041;-74
2024/04/09 02:56:20;;;;;;;6.15;1.52;;;;;;;9.67;54.01;94210.22;5540548;25;20101;-75
2024/04/09 02:58:45;;;;;;;3.95;1.20;;;;;;;9.69;54.48;94213.34;5540202;25;20134;-74
2024/04/09 03:01:11;;;;;;;5.47;1.20;;;;;;;9.61;54.29;94220.19;5540364;25;19993;-74
2024/04/09 03:03:38;;;;;;;3.55;1.83;;;;;;;9.58;54.35;94220.78;5541017;25;20069;-73
2024/04/09 03:06:07;;;;;;;4.25;1.35;;;;;;;9.55;54.47;94216.06;5540243;26;19990;-73
2024/04/09 03:08:33;;;;;;;5.20;1.80;;;;;;;9.53;54.67;94221.69;5540605;25;19988;-73
2024/04/09 03:10:58;;;;;;;5.18;1.75;;;;;;;9.52;54.73;94219.31;5540695;26;19986;-73
2024/04/09 03:13:23;;;;;;;4.82;1.77;;;;;;;9.50;54.57;94222.25;5540761;25;19989;-73
2024/04/09 03:15:49;;;;;;;4.75;1.30;;;;;;;9.48;54.62;94219.09;5540388;26;19991;-74
2024/04/09 03:18:14;;;;;;;2.95;1.42;;;;;;;9.43;54.49;94220.00;5540677;26;19988;-74
2024/04/09 03:20:40;;;;;;;2.30;1.20;;;;;;;9.40;54.05;94227.78;5540347;26;20105;-74
2024/04/09 03:23:06;;;;;;;2.25;0.93;;;;;;;9.42;53.96;94229.06;5540722;25;19985;-74
2024/04/09 03:25:31;;;;;;;3.00;1.10;;;;;;;9.38;54.34;94233.41;5540325;25;19981;-74
2024/04/09 03:27:56;;;;;;;3.78;1.52;;;;;;;9.41;54.41;94232.03;5540544;26;19982;-74
2024/04/09 03:30:22;;;;;;;4.22;1.20;;;;;;;9.38;54.01;94233.41;5540112;26;19997;-74
2024/04/09 03:32:50;;;;;;;4.60;1.65;;;;;;;9.37;53.46;94234.47;5540325;26;19985;-74
2024/04/09 03:35:16;;;;;;;2.97;1.30;;;;;;;9.36;54.07;94227.59;5540048;25;20134;-73
2024/04/09 03:37:41;;;;;;;3.67;1.42;;;;;;;9.33;53.64;94232.72;5540224;26;20005;-73
2024/04/09 03:40:07;;;;;;;2.30;1.38;;;;;;;9.31;53.97;94230.34;5539931;26;19989;-73
2024/04/09 03:42:32;;;;;;;3.55;1.52;;;;;;;9.29;54.24;94232.50;5539912;25;19993;-74
2024/04/09 03:44:57;;;;;;;3.10;1.60;;;;;;;9.26;54.22;94234.97;5540076;26;20089;-74
2024/04/09 03:47:23;;;;;;;7.07;2.05;;;;;;;9.24;54.46;94235.28;5540492;26;20045;-73
2024/04/09 03:49:48;;;;;;;22.55;2.03;;;;;;;9.22;54.85;94229.47;5539720;26;19992;-73
2024/04/09 03:52:14;;;;;;;3.20;1.20;;;;;;;9.21;54.89;94230.53;5539882;26;20201;-73
2024/04/09 03:54:39;;;;;;;9.38;1.60;;;;;;;9.20;55.01;94240.41;5539896;26;19985;-73
2024/04/09 03:57:05;;;;;;;3.20;1.63;;;;;;;9.20;54.52;94234.31;5539326;25;19982;-73
2024/04/09 03:59:32;;;;;;;8.50;1.80;;;;;;;9.20;55.04;94244.94;5539767;25;19981;-73
2024/04/09 04:01:58;;;;;;;4.85;1.40;;;;;;;9.15;55.04;94247.69;5539907;26;19993;-73
2024/04/09 04:04:23;;;;;;;4.72;1.50;;;;;;;9.10;55.15;94251.22;5539452;26;20095;-73
2024/04/09 04:06:49;;;;;;;4.18;1.50;;;;;;;9.11;55.46;94252.00;5539269;26;19981;-73
2024/04/09 04:09:14;;;;;;;5.15;1.52;;;;;;;9.13;55.38;94252.50;5539681;25;19981;-73
2024/04/09 04:11:39;;;;;;;2.28;1.17;;;;;;;9.14;55.16;94257.53;5539347;25;20076;-73
2024/04/09 04:14:05;;;;;;;5.35;1.58;;;;;;;9.10;55.54;94247.75;5539355;25;19989;-73
2024/04/09 04:16:30;;;;;;;4.32;1.67;;;;;;;9.16;55.64;94257.22;5539627;25;19992;-74
2024/04/09 04:18:56;;;;;;;3.83;1.83;;;;;;;9.18;55.77;94257.72;5539369;26;19988;-73
2024/04/09 04:21:23;;;;;;;3.63;1.88;;;;;;;9.21;55.81;94262.47;5539373;26;19985;-74
2024/04/09 04:23:54;;;;;;;9.38;1.77;;;;;;;9.25;55.78;94258.13;5539345;26;20120;-73
2024/04/09 04:26:21;;;;;;;10.20;1.73;;;;;;;9.26;55.52;94257.06;5539160;25;19985;-72
2024/04/09 04:28:48;;;;;;;6.05;1.40;;;;;;;9.30;55.26;94262.56;5538930;26;19990;-72
2024/04/09 04:31:15;;;;;;;6.88;1.42;;;;;;;9.33;54.58;94260.09;5538760;26;19982;-72
2024/04/09 04:33:41;;;;;;;4.63;1.25;;;;;;;9.37;54.38;94258.44;5538965;26;20041;-73
2024/04/09 04:36:08;;;;;;;3.88;1.63;;;;;;;9.41;55.03;94258.63;5538762;25;19981;-72
2024/04/09 04:38:34;;;;;;;4.50;1.38;;;;;;;9.39;54.82;94258.13;5539355;26;19989;-72
2024/04/09 04:41:00;;;;;;;4.43;1.48;;;;;;;9.39;54.71;94248.28;5506383;25;20118;-73
2024/04/09 04:43:25;;;;;;;7.78;1.60;;;;;;;9.46;55.00;94258.53;5539063;26;19992;-73
2024/04/09 04:45:51;;;;;;;4.25;1.73;;;;;;;9.56;54.73;94260.19;5538880;26;19985;-73
2024/04/09 04:48:18;;;;;;;4.65;1.77;;;;;;;9.63;54.56;94250.75;5507206;26;20092;-73
2024/04/09 04:50:45;;;;;;;14.82;1.77;;;;;;;9.72;54.98;94263.34;5538894;26;20081;-73
2024/04/09 04:53:11;;;;;;;6.30;1.60;;;;;;;9.79;54.79;94258.41;5538394;26;20017;-72
2024/04/09 04:55:37;;;;;;;6.35;2.17;;;;;;;9.88;54.89;94267.28;5538837;25;19993;-73
2024/04/09 04:58:05;;;;;;;5.32;2.05;;;;;;;9.93;54.89;94266.38;5538774;26;20037;-72
2024/04/09 05:00:32;;;;;;;25.25;3.55;;;;;;;9.95;55.15;94264.19;5539129;26;19988;-72
2024/04/09 05:02:58;;;;;;;6.15;2.17;;;;;;;10.03;54.74;94266.16;5538932;26;20165;-72
2024/04/09 05:05:24;;;;;;;12.00;2.92;;;;;;;10.09;54.84;94267.63;5538783;26;19981;-72
2024/04/09 05:07:50;;;;;;;16.25;3.20;;;;;;;10.14;54.67;94264.88;5538739;26;20004;-72
2024/04/09 05:10:16;;;;;;;16.60;4.10;;;;;;;10.24;54.82;94272.63;5538864;25;20088;-72
2024/04/09 05:12:51;;;;;;;11.07;3.08;;;;;;;10.30;55.11;94264.53;5538966;26;20005;-73
2024/04/09 05:15:18;;;;;;;24.77;3.90;;;;;;;10.31;55.39;94268.78;5539012;26;19993;-74
2024/04/09 05:17:44;;;;;;;19.98;4.28;;;;;;;10.36;55.58;94274.00;5539075;25;19989;-74
2024/04/09 05:20:11;;;;;;;15.30;4.53;;;;;;;10.41;55.72;94272.00;5539146;25;20085;-74
2024/04/09 05:22:40;;;;;;;22.08;4.80;;;;;;;10.39;55.76;94268.84;5538850;26;20014;-74
2024/04/09 05:25:07;;;;;;;22.63;4.43;;;;;;;10.43;55.87;94266.38;5538826;26;19986;-75
2024/04/09 05:27:33;;;;;;;18.92;4.65;;;;;;;10.48;56.11;94265.47;5538896;26;19986;-74
2024/04/09 05:29:59;;;;;;;14.25;4.72;;;;;;;10.54;55.61;94270.41;5539115;25;19993;-75
2024/04/09 05:32:25;;;;;;;8.68;3.90;;;;;;;10.55;54.99;94261.31;5538655;26;19996;-76
2024/04/09 05:34:50;;;;;;;12.55;3.53;;;;;;;10.67;54.33;94265.31;5538695;26;19985;-75
2024/04/09 05:37:16;;;;;;;12.60;3.30;;;;;;;10.71;54.45;94255.63;5539088;26;19996;-75
2024/04/09 05:39:46;;;;;;;12.13;3.50;;;;;;;10.82;54.30;94262.28;5538775;25;20010;-75
2024/04/09 05:42:12;;;;;;;11.27;3.53;;;;;;;10.94;54.09;94267.84;5538840;25;20041;-74
2024/04/09 05:44:38;;;;;;;12.32;4.10;;;;;;;10.98;54.16;94254.69;5538557;25;19985;-75
2024/04/09 05:47:05;;;;;;;24.42;4.30;;;;;;;11.12;53.74;94251.94;5538546;25;19982;-76
2024/04/09 05:49:31;;;;;;;15.52;4.80;;;;;;;11.21;53.60;94250.09;5538473;25;20202;-75
2024/04/09 05:51:56;;;;;;;16.13;3.80;;;;;;;11.27;53.39;94253.41;5539238;25;19997;-75
2024/04/09 05:54:21;;;;;;;20.70;4.05;;;;;;;11.33;53.50;94254.84;5541949;26;19994;-75
2024/04/09 05:56:47;;;;;;;21.98;4.57;;;;;;;11.38;52.84;94258.19;5541876;26;20038;-76
2024/04/09 05:59:13;;;;;;;20.75;4.05;;;;;;;11.37;53.17;94258.47;5542198;25;19988;-75
2024/04/09 06:01:39;;;;;;;19.25;4.13;;;;;;;11.38;53.58;94260.06;5541866;26;19993;-75
2024/04/09 06:04:05;;;;;;;21.95;3.42;;;;;;;11.44;52.81;94251.59;5541649;26;20037;-76
2024/04/09 06:06:30;;;;;;;24.50;3.83;;;;;;;11.48;52.41;94259.78;5572257;25;19995;-76
2024/04/09 06:08:56;;;;;;;13.85;3.72;;;;;;;11.56;51.50;94260.91;5510230;26;19981;-75
2024/04/09 06:11:21;;;;;;;15.52;3.47;;;;;;;11.62;51.03;94255.13;5542008;26;19985;-75
2024/04/09 06:13:47;;;;;;;22.00;4.88;;;;;;;11.73;51.02;94273.53;5510089;26;19995;-76
2024/04/09 06:16:14;;;;;;;19.98;4.75;;;;;;;11.72;51.29;94270.06;5541504;26;20041;-74
2024/04/09 06:18:39;;;;;;;14.18;3.58;;;;;;;11.76;51.38;94271.00;5541350;26;20088;-74
2024/04/09 06:21:04;;;;;;;19.27;4.00;;;;;;;11.85;51.52;94279.84;5542065;26;19986;-74
2024/04/09 06:23:31;;;;;;;17.42;3.70;;;;;;;11.88;51.02;94274.97;5542010;26;20121;-73
2024/04/09 06:25:57;;;;;;;14.35;3.75;;;;;;;11.92;50.75;94278.63;5541670;26;20196;-74
2024/04/09 06:28:23;;;;;;;7.70;3.03;;;;;;;11.95;50.29;94270.00;5541008;25;19985;-74
2024/04/09 06:30:48;;;;;;;16.50;4.05;;;;;;;12.04;49.72;94276.16;5541273;25;19994;-74
2024/04/09 06:33:13;;;;;;;11.90;4.30;;;;;;;12.10;49.72;94268.78;5541837;25;19989;-74
2024/04/09 06:35:39;;;;;;;12.25;3.60;;;;;;;12.21;49.62;94276.19;5509352;26;20059;-74
2024/04/09 06:38:04;;;;;;;20.90;3.67;;;;;;;12.33;49.28;94270.19;5541673;25;20200;-74
2024/04/09 06:40:31;;;;;;;14.73;3.60;;;;;;;12.41;48.46;94266.75;5541345;26;20038;-74
2024/04/09 06:42:57;;;;;;;17.98;2.97;;;;;;;12.48;47.95;94274.31;5541701;25;19997;-74
2024/04/09 06:45:22;;;;;;;11.35;2.55;;;;;;;12.53;48.08;94271.47;5541387;26;20088;-75
2024/04/09 06:47:48;;;;;;;9.77;2.70;;;;;;;12.65;47.70;94266.28;5541044;26;20193;-74
2024/04/09 06:50:15;;;;;;;6.90;2.83;;;;;;;12.84;46.83;94273.19;5541145;25;20010;-73
2024/04/09 06:52:41;;;;;;;13.35;2.70;;;;;;;12.92;46.69;94259.00;5541150;25;20000;-73
2024/04/09 06:55:06;;;;;;;21.38;3.20;;;;;;;12.99;45.71;94270.03;5541065;25;20029;-73
2024/04/09 06:57:31;;;;;;;12.02;2.47;;;;;;;13.04;45.84;94269.06;5509290;26;20010;-73
2024/04/09 06:59:57;;;;;;;14.68;2.90;;;;;;;13.07;45.10;94262.28;5541289;25;20033;-73
2024/04/09 07:02:22;;;;;;;4.75;2.53;;;;;;;13.15;46.62;94269.53;5540839;25;20058;-73
2024/04/09 07:04:48;;;;;;;15.60;3.10;;;;;;;13.24;44.69;94259.56;5539878;25;19982;-73
2024/04/09 07:07:14;;;;;;;11.65;3.10;;;;;;;13.32;45.03;94258.78;5541364;26;20088;-73
2024/04/09 07:09:39;;;;;;;17.45;2.97;;;;;;;13.44;45.33;94255.44;5509490;26;19985;-73
2024/04/09 07:12:05;;;;;;;26.88;3.40;;;;;;;13.57;44.74;94250.97;5540757;25;20005;-73
2024/04/09 07:14:30;;;;;;;5.93;2.33;;;;;;;13.66;44.59;94254.41;5541168;26;20197;-73
2024/04/09 07:16:56;;;;;;;11.70;3.15;;;;;;;13.80;44.19;94256.88;5540865;26;19993;-73
2024/04/09 07:19:21;;;;;;;13.55;3.03;;;;;;;13.90;43.51;94256.50;5540620;25;19987;-74
2024/04/09 07:21:46;;;;;;;10.48;2.80;;;;;;;13.90;43.38;94248.47;5540703;25;19994;-73
2024/04/09 07:24:12;;;;;;;20.92;3.60;;;;;;;13.99;43.45;94251.88;5540852;25;20118;-73
2024/04/09 07:26:37;;;;;;;27.52;6.05;;;;;;;14.13;43.51;94253.53;5540732;25;19989;-73
2024/04/09 07:29:03;;;;;;;16.48;3.53;;;;;;;14.17;42.62;94251.78;5540347;26;19996;-73
2024/04/09 07:31:28;;;;;;;11.43;3.13;;;;;;;14.27;42.93;94253.25;5540720;26;20168;-72
2024/04/09 07:33:54;;;;;;;24.58;3.45;;;;;;;14.31;43.00;94259.53;5540407;25;19993;-73
2024/04/09 07:36:21;;;;;;;7.38;2.90;;;;;;;14.41;42.95;94256.47;5540280;25;20035;-74
2024/04/09 07:38:47;;;;;;;8.52;2.53;;;;;;;14.53;41.90;94243.16;5509043;26;19989;-74
2024/04/09 07:41:13;;;;;;;11.43;2.80;;;;;;;14.62;41.81;94251.91;5540417;26;20001;-74
2024/04/09 07:43:38;;;;;;;17.42;3.15;;;;;;;14.73;42.08;94246.94;5540666;25;20273;-74
2024/04/09 07:46:07;;;;;;;13.93;3.05;;;;;;;14.85;41.39;94246.19;5540337;26;20081;-74
2024/04/09 07:48:32;;;;;;;19.88;3.22;;;;;;;14.88;40.65;94242.88;5540069;25;19996;-74
2024/04/09 07:50:58;;;;;;;10.13;3.25;;;;;;;14.90;40.01;94246.00;5540447;26;19990;-74
2024/04/09 07:53:23;;;;;;;11.35;2.78;;;;;;;14.91;40.10;94244.09;5540052;26;20005;-74
2024/04/09 07:55:49;;;;;;;21.92;3.67;;;;;;;14.93;40.46;94237.28;5540130;25;19989;-74
2024/04/09 07:58:14;;;;;;;18.83;4.22;;;;;;;15.03;40.56;94241.44;5540314;26;20001;-74
2024/04/09 08:00:41;;;;;;;10.68;2.40;;;;;;;15.16;40.42;94235.00;5540397;25;19982;-74
2024/04/09 08:03:07;;;;;;;14.80;2.75;;;;;;;15.26;40.53;94231.09;5539777;25;19997;-74
2024/04/09 08:05:42;;;;;;;17.08;2.35;;;;;;;15.40;40.16;94228.88;5540309;25;19986;-74
2024/04/09 08:08:09;;;;;;;15.85;2.40;;;;;;;15.54;39.46;94223.19;5538141;25;20035;-74
2024/04/09 08:10:35;;;;;;;5.43;2.10;;;;;;;15.65;38.86;94220.81;5539975;26;19990;-74
2024/04/09 08:13:01;;;;;;;11.70;2.38;;;;;;;15.68;37.95;94222.84;5539669;25;20181;-74
2024/04/09 08:15:26;;;;;;;10.85;2.20;;;;;;;15.72;38.71;94226.47;5539949;26;19981;-74
2024/04/09 08:17:53;;;;;;;14.00;2.38;;;;;;;15.81;38.65;94212.91;5508137;26;19997;-74
2024/04/09 08:20:19;;;;;;;10.45;1.65;;;;;;;15.92;37.92;94218.63;5539203;26;20033;-74
2024/04/09 08:22:49;;;;;;;17.45;2.28;;;;;;;15.98;37.30;94219.97;5539710;26;19993;-74
2024/04/09 08:25:15;;;;;;;7.80;1.52;;;;;;;16.07;36.62;94220.59;5539673;25;20137;-74
2024/04/09 08:27:41;;;;;;;19.15;1.65;;;;;;;16.17;36.81;94216.69;5539557;26;19989;-74
2024/04/09 08:30:09;;;;;;;4.10;1.52;;;;;;;16.18;35.87;94213.66;5539484;25;20185;-74
2024/04/09 08:32:34;;;;;;;8.13;1.80;;;;;;;16.30;36.09;94215.50;5539865;25;20038;-74
2024/04/09 08:35:01;;;;;;;4.22;1.65;;;;;;;16.37;35.80;94209.56;5539980;26;19985;-74
2024/04/09 08:37:27;;;;;;;6.30;1.63;;;;;;;16.40;36.22;94208.88;5540106;25;19985;-74
2024/04/09 08:39:55;;;;;;;15.70;1.77;;;;;;;16.41;35.96;94210.47;5540001;26;19988;-75
2024/04/09 08:42:24;;;;;;;6.10;1.52;;;;;;;16.49;36.08;94201.47;5539895;26;19993;-76
2024/04/09 08:44:50;;;;;;;9.90;1.58;;;;;;;16.55;35.56;94204.69;5539395;26;19982;-80
2024/04/09 08:47:25;;;;;;;9.45;2.00;;;;;;;16.64;35.25;94197.25;5539065;26;19996;-77
2024/04/09 08:49:55;;;;;;;4.05;1.63;;;;;;;16.79;35.08;94198.41;5540053;25;19996;-78
2024/04/09 08:52:23;;;;;;;14.90;1.63;;;;;;;16.87;35.09;94184.03;5539548;25;20202;-78
2024/04/09 08:54:49;;;;;;;5.07;1.55;;;;;;;16.98;34.53;94192.41;5507344;26;20009;-77
2024/04/09 08:57:30;;;;;;;9.85;1.10;;;;;;;17.13;34.67;94190.88;5536302;25;19985;-77
2024/04/09 08:59:57;;;;;;;8.00;1.77;;;;;;;17.27;34.62;94185.06;5564538;25;19985;-77
2024/04/09 09:02:22;;;;;;;7.85;1.83;;;;;;;17.38;34.89;94175.31;5535859;26;19981;-77
2024/04/09 09:04:48;;;;;;;9.93;2.03;;;;;;;17.55;34.53;94180.34;5535918;25;19985;-77
2024/04/09 09:07:15;;;;;;;9.52;1.60;;;;;;;17.70;34.10;94184.16;5535888;25;19986;-77
2024/04/09 09:09:41;;;;;;;7.38;1.67;;;;;;;17.84;33.78;94181.81;5535949;25;20013;-78
2024/04/09 09:12:06;;;;;;;13.80;1.88;;;;;;;17.99;34.23;94182.13;5536872;25;20009;-77
2024/04/09 09:14:33;;;;;;;7.65;2.17;;;;;;;18.14;33.84;94178.63;5538611;25;20051;-77
2024/04/09 09:17:05;;;;;;;4.50;1.40;;;;;;;18.28;32.83;94174.66;5538694;26;20038;-78
2024/04/09 09:19:31;;;;;;;;;;;;;;;18.40;32.50;94169.91;5539286;25;20026;-77
2024/04/09 09:22:02;;;;;;;11.48;1.77;;;;;;;18.43;32.36;94168.41;5507593;26;19919;-79
2024/04/09 09:24:30;;;;;;;5.65;1.55;;;;;;;18.51;33.47;94159.31;5539004;26;19985;-78
2024/04/09 09:27:03;;;;;;;6.65;1.58;;;;;;;18.64;33.24;94157.25;5538341;26;20080;-78
2024/04/09 09:29:32;;;;;;;5.18;1.98;;;;;;;18.75;33.35;94154.78;5539405;26;19985;-79
2024/04/09 09:31:59;;;;;;;21.60;1.95;;;;;;;18.88;32.83;94145.38;5538826;25;19998;-79
2024/04/09 09:34:40;;;;;;;9.27;1.98;;;;;;;18.95;31.68;94153.63;5538626;25;19989;-78
2024/04/09 09:37:08;;;;;;;9.02;1.90;;;;;;;19.00;31.37;94142.50;5539016;25;20121;-78
2024/04/09 09:39:35;;;;;;;7.72;1.52;;;;;;;19.06;31.91;94145.72;5538683;26;19993;-80
2024/04/09 09:42:01;;;;;;;12.52;2.63;;;;;;;19.11;32.07;94139.22;5507203;26;19981;-79
2024/04/09 09:44:34;;;;;;;10.48;1.60;;;;;;;19.04;31.51;94132.56;5539202;26;20043;-79
2024/04/09 09:47:03;;;;;;;10.65;1.83;;;;;;;19.16;31.50;94128.13;5538857;25;20029;-79
2024/04/09 09:49:29;;;;;;;8.15;1.33;;;;;;;19.26;31.58;94122.13;5538987;25;19989;-79
2024/04/09 09:51:56;;;;;;;7.72;1.42;;;;;;;19.38;31.76;94124.63;5538562;26;19993;-79
2024/04/09 09:54:26;;;;;;;5.10;1.33;;;;;;;19.51;31.30;94121.72;5538218;26;19997;-78
2024/04/09 09:56:56;;;;;;;8.05;1.50;;;;;;;19.63;30.36;94116.88;5538501;25;19985;-77
2024/04/09 09:59:23;;;;;;;7.57;1.55;;;;;;;19.66;30.80;94109.97;5538899;26;20029;-78
2024/04/09 10:01:51;;;;;;;10.48;1.27;;;;;;;19.70;29.68;94110.00;5538432;25;20001;-78
2024/04/09 10:04:17;;;;;;;10.68;1.35;;;;;;;19.74;28.47;94117.09;5538420;25;20200;-78
2024/04/09 10:06:56;;;;;;;6.82;1.30;;;;;;;19.84;29.10;94113.75;5539034;25;19982;-78
2024/04/09 10:09:41;;;;;;;3.80;1.00;;;;;;;20.01;29.15;94122.47;5538582;26;20256;-78
2024/04/09 10:12:10;;;;;;;2.72;1.15;;;;;;;20.05;28.71;94107.06;5538394;25;20005;-80
2024/04/09 10:14:41;;;;;;;5.82;1.27;;;;;;;20.09;27.68;94107.88;5538062;26;20000;-79
2024/04/09 10:17:13;;;;;;;6.13;1.45;;;;;;;20.12;29.45;94104.44;5538517;25;19982;-79
2024/04/09 10:19:41;;;;;;;11.95;1.30;;;;;;;20.26;29.95;94111.19;5568342;25;19981;-78
2024/04/09 10:22:06;;;;;;;11.52;1.30;;;;;;;20.30;27.22;94099.25;5537868;26;19997;-79
2024/04/09 10:24:35;;;;;;;5.40;1.27;;;;;;;20.41;27.34;94097.44;5538078;26;19986;-79
2024/04/09 10:27:00;;;;;;;2.95;1.10;;;;;;;20.57;28.35;94093.75;5538395;26;19985;-79
2024/04/09 10:29:29;;;;;;;3.55;1.05;;;;;;;20.69;27.86;94098.16;5506726;26;19993;-79
2024/04/09 10:31:55;;;;;;;3.63;1.15;;;;;;;20.81;26.94;94087.06;5537772;25;19993;-80
2024/04/09 10:34:24;;;;;;;3.88;1.30;;;;;;;20.74;25.09;94084.25;5538310;26;19989;-79
2024/04/09 10:36:50;;;;;;;4.28;1.50;;;;;;;20.79;24.48;94083.94;5538169;26;19996;-79
2024/04/09 10:39:16;;;;;;;1.60;0.80;;;;;;;20.93;25.76;94084.06;5539196;25;19996;-80
2024/04/09 10:41:41;;;;;;;5.38;0.90;;;;;;;21.07;22.87;94079.94;5542094;25;20193;-79
2024/04/09 10:44:09;;;;;;;10.70;1.50;;;;;;;21.18;23.96;94083.50;5541321;25;19985;-79
2024/04/09 10:46:35;;;;;;;9.48;1.02;;;;;;;21.21;23.45;94071.94;5541724;26;20001;-78
2024/04/09 10:49:00;;;;;;;5.55;0.90;;;;;;;21.30;23.34;94077.78;5541771;26;19981;-79
2024/04/09 10:51:26;;;;;;;8.18;1.23;;;;;;;21.16;23.55;94077.69;5542018;26;20096;-79
2024/04/09 10:54:00;;;;;;;4.40;0.98;;;;;;;21.35;22.45;94071.22;5541674;25;19996;-78
2024/04/09 10:56:28;;;;;;;2.15;0.40;;;;;;;21.50;17.77;94067.50;5541052;26;19985;-77
2024/04/09 10:58:53;;;;;;;10.32;0.95;;;;;;;21.67;19.18;94065.28;5509471;26;19999;-76
2024/04/09 11:01:18;;;;;;;4.82;1.20;;;;;;;21.79;20.68;94057.59;5542655;26;19996;-77
2024/04/09 11:03:44;;;;;;;17.23;0.82;;;;;;;21.93;19.78;94062.31;5541235;26;20196;-77
2024/04/09 11:06:15;;;;;;;7.35;2.92;;;;;;;22.06;20.33;94051.13;5541159;25;19985;-77
2024/04/09 11:08:41;;;;;;;1.52;0.80;;;;;;;22.21;20.72;94052.75;5509662;26;19996;-78
2024/04/09 11:11:08;;;;;;;5.93;0.98;;;;;;;22.36;20.77;94045.47;5541190;26;20112;-77
2024/04/09 11:13:34;;;;;;;4.53;0.82;;;;;;;22.53;20.17;94044.75;5509889;26;19985;-77
2024/04/09 11:16:01;;;;;;;3.40;0.85;;;;;;;22.69;18.44;94043.59;5509040;26;20200;-79
2024/04/09 11:18:27;;;;;;;9.40;1.25;;;;;;;22.84;18.26;94047.91;5541290;26;20038;-78
2024/04/09 11:20:55;;;;;;;9.27;0.82;;;;;;;22.98;16.54;94039.75;5541136;26;20141;-78
2024/04/09 11:23:22;;;;;;;6.90;1.17;;;;;;;23.13;17.85;94031.63;5540604;25;20001;-79
2024/04/09 11:25:50;;;;;;;2.08;0.73;;;;;;;23.26;17.40;94032.00;5541180;25;20029;-79
2024/04/09 11:28:16;;;;;;;3.25;0.50;;;;;;;23.31;16.41;94026.19;5540770;26;20077;-78